sensor_id;sensor_type;location;lat;lon;timestamp;P1;durP1;ratioP1;P2;durP2;ratioP2
32505;SDS011;18955;51.224;8.482;2023-08-24T00:01:23;7.80;;;3.75;;
32505;SDS011;18955;51.224;8.482;2023-08-24T00:03:50;4.28;;;2.78;;
32505;SDS011;18955;51.224;8.482;2023-08-24T00:06:16;9.18;;;3.88;;
32505;SDS011;18955;51.224;8.482;2023-08-24T00:08:42;5.25;;;3.25;;
32505;SDS011;18955;51.224;8.482;2023-08-24T00:11:09;10.60;;;3.78;;
32505;SDS011;18955;51.224;8.482;2023-08-24T00:13:41;7.45;;;3.55;;
32505;SDS011;18955;51.224;8.482;2023-08-24T00:16:12;6.10;;;3.33;;
32505;SDS011;18955;51.224;8.482;2023-08-24T00:18:38;4.30;;;2.33;;
32505;SDS011;18955;51.224;8.482;2023-08-24T00:21:07;8.05;;;3.70;;
32505;SDS011;18955;51.224;8.482;2023-08-24T00:23:33;7.03;;;3.53;;
32505;SDS011;18955;51.224;8.482;2023-08-24T00:25:59;8.18;;;2.58;;
32505;SDS011;18955;51.224;8.482;2023-08-24T00:28:26;12.40;;;3.42;;
32505;SDS011;18955;51.224;8.482;2023-08-24T00:30:53;6.32;;;3.63;;
32505;SDS011;18955;51.224;8.482;2023-08-24T00:33:19;7.25;;;3.70;;
32505;SDS011;18955;51.224;8.482;2023-08-24T00:35:45;6.93;;;4.13;;
32505;SDS011;18955;51.224;8.482;2023-08-24T00:38:11;10.85;;;3.95;;
32505;SDS011;18955;51.224;8.482;2023-08-24T00:40:37;8.77;;;3.95;;
32505;SDS011;18955;51.224;8.482;2023-08-24T00:43:04;6.38;;;3.40;;
32505;SDS011;18955;51.224;8.482;2023-08-24T00:47:58;7.78;;;3.75;;
32505;SDS011;18955;51.224;8.482;2023-08-24T00:50:25;10.95;;;3.63;;
32505;SDS011;18955;51.224;8.482;2023-08-24T00:52:51;8.65;;;3.55;;
32505;SDS011;18955;51.224;8.482;2023-08-24T00:55:18;4.47;;;3.95;;
32505;SDS011;18955;51.224;8.482;2023-08-24T00:57:45;8.40;;;3.45;;
32505;SDS011;18955;51.224;8.482;2023-08-24T01:00:13;8.88;;;3.88;;
32505;SDS011;18955;51.224;8.482;2023-08-24T01:02:40;8.68;;;4.00;;
32505;SDS011;18955;51.224;8.482;2023-08-24T01:05:06;5.50;;;3.50;;
32505;SDS011;18955;51.224;8.482;2023-08-24T01:10:04;7.95;;;4.03;;
32505;SDS011;18955;51.224;8.482;2023-08-24T01:12:51;8.38;;;4.10;;
32505;SDS011;18955;51.224;8.482;2023-08-24T01:15:46;6.53;;;4.13;;
32505;SDS011;18955;51.224;8.482;2023-08-24T01:18:16;7.75;;;4.05;;
32505;SDS011;18955;51.224;8.482;2023-08-24T01:20:45;12.48;;;3.80;;
32505;SDS011;18955;51.224;8.482;2023-08-24T01:26:20;5.45;;;4.15;;
32505;SDS011;18955;51.224;8.482;2023-08-24T01:28:47;7.47;;;3.95;;
32505;SDS011;18955;51.224;8.482;2023-08-24T01:31:13;8.32;;;4.38;;
32505;SDS011;18955;51.224;8.482;2023-08-24T01:33:43;9.82;;;4.70;;
32505;SDS011;18955;51.224;8.482;2023-08-24T01:36:11;7.60;;;4.35;;
32505;SDS011;18955;51.224;8.482;2023-08-24T01:38:39;8.50;;;4.13;;
32505;SDS011;18955;51.224;8.482;2023-08-24T01:41:16;6.32;;;3.92;;
32505;SDS011;18955;51.224;8.482;2023-08-24T01:43:52;10.95;;;4.32;;
32505;SDS011;18955;51.224;8.482;2023-08-24T01:46:20;7.45;;;4.30;;
32505;SDS011;18955;51.224;8.482;2023-08-24T01:48:48;8.30;;;3.90;;
32505;SDS011;18955;51.224;8.482;2023-08-24T01:51:16;6.30;;;4.10;;
32505;SDS011;18955;51.224;8.482;2023-08-24T01:53:43;7.35;;;4.03;;
32505;SDS011;18955;51.224;8.482;2023-08-24T01:56:11;7.63;;;3.78;;
32505;SDS011;18955;51.224;8.482;2023-08-24T01:58:38;10.23;;;4.22;;
32505;SDS011;18955;51.224;8.482;2023-08-24T02:03:32;6.93;;;3.83;;
32505;SDS011;18955;51.224;8.482;2023-08-24T02:05:58;8.38;;;4.32;;
32505;SDS011;18955;51.224;8.482;2023-08-24T02:08:24;8.70;;;2.83;;
32505;SDS011;18955;51.224;8.482;2023-08-24T02:10:51;8.00;;;4.20;;
32505;SDS011;18955;51.224;8.482;2023-08-24T02:13:17;6.88;;;3.95;;
32505;SDS011;18955;51.224;8.482;2023-08-24T02:15:43;7.47;;;4.30;;
32505;SDS011;18955;51.224;8.482;2023-08-24T02:18:09;9.00;;;4.32;;
32505;SDS011;18955;51.224;8.482;2023-08-24T02:20:36;11.30;;;4.22;;
32505;SDS011;18955;51.224;8.482;2023-08-24T02:23:03;8.90;;;4.43;;
32505;SDS011;18955;51.224;8.482;2023-08-24T02:25:30;9.63;;;4.60;;
32505;SDS011;18955;51.224;8.482;2023-08-24T02:30:23;6.82;;;3.78;;
32505;SDS011;18955;51.224;8.482;2023-08-24T02:32:49;11.20;;;3.85;;
32505;SDS011;18955;51.224;8.482;2023-08-24T02:35:16;6.95;;;3.97;;
32505;SDS011;18955;51.224;8.482;2023-08-24T02:37:43;12.10;;;4.53;;
32505;SDS011;18955;51.224;8.482;2023-08-24T02:40:11;9.35;;;4.25;;
32505;SDS011;18955;51.224;8.482;2023-08-24T02:42:37;5.10;;;3.80;;
32505;SDS011;18955;51.224;8.482;2023-08-24T02:45:04;11.98;;;4.30;;
32505;SDS011;18955;51.224;8.482;2023-08-24T02:47:30;12.65;;;4.35;;
32505;SDS011;18955;51.224;8.482;2023-08-24T02:49:56;15.80;;;4.93;;
32505;SDS011;18955;51.224;8.482;2023-08-24T02:52:22;8.23;;;4.15;;
32505;SDS011;18955;51.224;8.482;2023-08-24T02:54:49;12.93;;;4.13;;
32505;SDS011;18955;51.224;8.482;2023-08-24T02:57:16;7.20;;;4.22;;
32505;SDS011;18955;51.224;8.482;2023-08-24T02:59:42;9.95;;;4.10;;
32505;SDS011;18955;51.224;8.482;2023-08-24T03:02:10;10.63;;;4.25;;
32505;SDS011;18955;51.224;8.482;2023-08-24T03:04:36;8.40;;;4.70;;
32505;SDS011;18955;51.224;8.482;2023-08-24T03:07:02;7.47;;;3.33;;
32505;SDS011;18955;51.224;8.482;2023-08-24T03:09:29;12.57;;;4.05;;
32505;SDS011;18955;51.224;8.482;2023-08-24T03:11:55;7.75;;;4.22;;
32505;SDS011;18955;51.224;8.482;2023-08-24T03:14:22;8.85;;;4.15;;
32505;SDS011;18955;51.224;8.482;2023-08-24T03:16:48;10.25;;;4.68;;
32505;SDS011;18955;51.224;8.482;2023-08-24T03:19:16;11.10;;;4.45;;
32505;SDS011;18955;51.224;8.482;2023-08-24T03:21:44;8.98;;;3.92;;
32505;SDS011;18955;51.224;8.482;2023-08-24T03:24:10;7.75;;;4.30;;
32505;SDS011;18955;51.224;8.482;2023-08-24T03:26:39;10.93;;;4.22;;
32505;SDS011;18955;51.224;8.482;2023-08-24T03:29:05;8.98;;;4.28;;
32505;SDS011;18955;51.224;8.482;2023-08-24T03:31:31;10.40;;;4.40;;
32505;SDS011;18955;51.224;8.482;2023-08-24T03:33:58;6.15;;;4.25;;
32505;SDS011;18955;51.224;8.482;2023-08-24T03:36:24;9.98;;;4.30;;
32505;SDS011;18955;51.224;8.482;2023-08-24T03:38:51;11.82;;;4.38;;
32505;SDS011;18955;51.224;8.482;2023-08-24T03:41:17;6.20;;;4.20;;
32505;SDS011;18955;51.224;8.482;2023-08-24T03:43:45;10.25;;;4.22;;
32505;SDS011;18955;51.224;8.482;2023-08-24T03:46:11;9.07;;;4.07;;
32505;SDS011;18955;51.224;8.482;2023-08-24T03:48:41;7.38;;;3.97;;
32505;SDS011;18955;51.224;8.482;2023-08-24T03:51:07;8.52;;;3.53;;
32505;SDS011;18955;51.224;8.482;2023-08-24T03:53:35;7.80;;;3.83;;
32505;SDS011;18955;51.224;8.482;2023-08-24T03:56:02;13.95;;;4.75;;
32505;SDS011;18955;51.224;8.482;2023-08-24T03:58:28;6.03;;;3.35;;
32505;SDS011;18955;51.224;8.482;2023-08-24T04:00:54;8.77;;;4.03;;
32505;SDS011;18955;51.224;8.482;2023-08-24T04:03:21;11.25;;;4.22;;
32505;SDS011;18955;51.224;8.482;2023-08-24T04:05:47;21.08;;;4.60;;
32505;SDS011;18955;51.224;8.482;2023-08-24T04:08:13;14.00;;;4.90;;
32505;SDS011;18955;51.224;8.482;2023-08-24T04:10:39;9.95;;;4.10;;
32505;SDS011;18955;51.224;8.482;2023-08-24T04:13:05;6.88;;;4.68;;
32505;SDS011;18955;51.224;8.482;2023-08-24T04:15:32;11.73;;;4.80;;
32505;SDS011;18955;51.224;8.482;2023-08-24T04:17:58;12.23;;;4.38;;
32505;SDS011;18955;51.224;8.482;2023-08-24T04:20:24;9.77;;;3.80;;
32505;SDS011;18955;51.224;8.482;2023-08-24T04:22:50;8.60;;;4.25;;
32505;SDS011;18955;51.224;8.482;2023-08-24T04:25:16;9.55;;;3.47;;
32505;SDS011;18955;51.224;8.482;2023-08-24T04:27:43;6.97;;;3.85;;
32505;SDS011;18955;51.224;8.482;2023-08-24T04:30:09;8.70;;;3.05;;
32505;SDS011;18955;51.224;8.482;2023-08-24T04:32:37;6.85;;;3.97;;
32505;SDS011;18955;51.224;8.482;2023-08-24T04:35:03;8.38;;;3.10;;
32505;SDS011;18955;51.224;8.482;2023-08-24T04:37:30;31.15;;;5.07;;
32505;SDS011;18955;51.224;8.482;2023-08-24T04:39:56;27.60;;;4.97;;
32505;SDS011;18955;51.224;8.482;2023-08-24T04:42:22;27.40;;;5.07;;
32505;SDS011;18955;51.224;8.482;2023-08-24T04:44:50;15.98;;;4.60;;
32505;SDS011;18955;51.224;8.482;2023-08-24T04:47:16;19.52;;;4.45;;
32505;SDS011;18955;51.224;8.482;2023-08-24T04:49:43;14.32;;;3.08;;
32505;SDS011;18955;51.224;8.482;2023-08-24T04:52:09;21.02;;;4.50;;
32505;SDS011;18955;51.224;8.482;2023-08-24T04:54:35;13.80;;;3.38;;
32505;SDS011;18955;51.224;8.482;2023-08-24T04:57:02;45.85;;;6.70;;
32505;SDS011;18955;51.224;8.482;2023-08-24T05:01:54;53.20;;;6.90;;
32505;SDS011;18955;51.224;8.482;2023-08-24T05:04:20;36.47;;;6.80;;
32505;SDS011;18955;51.224;8.482;2023-08-24T05:06:46;39.17;;;6.03;;
32505;SDS011;18955;51.224;8.482;2023-08-24T05:09:13;26.88;;;7.35;;
32505;SDS011;18955;51.224;8.482;2023-08-24T05:11:39;18.90;;;4.00;;
32505;SDS011;18955;51.224;8.482;2023-08-24T05:14:05;42.67;;;6.53;;
32505;SDS011;18955;51.224;8.482;2023-08-24T05:16:31;31.83;;;7.53;;
32505;SDS011;18955;51.224;8.482;2023-08-24T05:18:57;21.67;;;4.85;;
32505;SDS011;18955;51.224;8.482;2023-08-24T05:21:24;46.78;;;9.20;;
32505;SDS011;18955;51.224;8.482;2023-08-24T05:23:50;20.52;;;6.43;;
32505;SDS011;18955;51.224;8.482;2023-08-24T05:26:16;14.38;;;4.93;;
32505;SDS011;18955;51.224;8.482;2023-08-24T05:28:48;29.83;;;6.00;;
32505;SDS011;18955;51.224;8.482;2023-08-24T05:31:14;8.85;;;4.35;;
32505;SDS011;18955;51.224;8.482;2023-08-24T05:33:40;18.88;;;5.50;;
32505;SDS011;18955;51.224;8.482;2023-08-24T05:36:06;11.07;;;3.35;;
32505;SDS011;18955;51.224;8.482;2023-08-24T05:38:32;20.98;;;5.18;;
32505;SDS011;18955;51.224;8.482;2023-08-24T05:40:59;27.13;;;5.10;;
32505;SDS011;18955;51.224;8.482;2023-08-24T05:43:25;21.75;;;5.32;;
32505;SDS011;18955;51.224;8.482;2023-08-24T05:45:51;19.27;;;5.68;;
32505;SDS011;18955;51.224;8.482;2023-08-24T05:50:44;11.93;;;4.63;;
32505;SDS011;18955;51.224;8.482;2023-08-24T05:53:11;11.10;;;4.60;;
32505;SDS011;18955;51.224;8.482;2023-08-24T05:55:37;16.02;;;4.78;;
32505;SDS011;18955;51.224;8.482;2023-08-24T05:58:04;17.58;;;5.20;;
32505;SDS011;18955;51.224;8.482;2023-08-24T06:00:30;19.52;;;4.30;;
32505;SDS011;18955;51.224;8.482;2023-08-24T06:02:56;14.30;;;4.38;;
32505;SDS011;18955;51.224;8.482;2023-08-24T06:05:22;27.85;;;4.72;;
32505;SDS011;18955;51.224;8.482;2023-08-24T06:07:49;16.38;;;3.75;;
32505;SDS011;18955;51.224;8.482;2023-08-24T06:10:15;22.42;;;4.45;;
32505;SDS011;18955;51.224;8.482;2023-08-24T06:15:08;20.98;;;4.72;;
32505;SDS011;18955;51.224;8.482;2023-08-24T06:17:36;20.75;;;4.50;;
32505;SDS011;18955;51.224;8.482;2023-08-24T06:20:03;13.85;;;4.63;;
32505;SDS011;18955;51.224;8.482;2023-08-24T06:22:29;18.00;;;4.18;;
32505;SDS011;18955;51.224;8.482;2023-08-24T06:24:55;20.00;;;4.85;;
32505;SDS011;18955;51.224;8.482;2023-08-24T06:27:25;16.60;;;4.65;;
32505;SDS011;18955;51.224;8.482;2023-08-24T06:29:52;14.82;;;5.40;;
32505;SDS011;18955;51.224;8.482;2023-08-24T06:32:18;16.45;;;5.55;;
32505;SDS011;18955;51.224;8.482;2023-08-24T06:34:44;12.90;;;6.63;;
32505;SDS011;18955;51.224;8.482;2023-08-24T06:37:11;16.15;;;6.25;;
32505;SDS011;18955;51.224;8.482;2023-08-24T06:39:37;14.18;;;5.18;;
32505;SDS011;18955;51.224;8.482;2023-08-24T06:42:03;7.40;;;3.70;;
32505;SDS011;18955;51.224;8.482;2023-08-24T06:44:30;18.52;;;5.38;;
32505;SDS011;18955;51.224;8.482;2023-08-24T06:46:56;11.63;;;6.22;;
32505;SDS011;18955;51.224;8.482;2023-08-24T06:49:22;15.15;;;4.75;;
32505;SDS011;18955;51.224;8.482;2023-08-24T06:51:49;16.77;;;6.30;;
32505;SDS011;18955;51.224;8.482;2023-08-24T06:54:15;8.05;;;5.57;;
32505;SDS011;18955;51.224;8.482;2023-08-24T06:56:41;6.80;;;3.95;;
32505;SDS011;18955;51.224;8.482;2023-08-24T06:59:08;16.98;;;5.70;;
32505;SDS011;18955;51.224;8.482;2023-08-24T07:01:36;14.63;;;6.80;;
32505;SDS011;18955;51.224;8.482;2023-08-24T07:04:02;13.18;;;6.18;;
32505;SDS011;18955;51.224;8.482;2023-08-24T07:06:29;11.40;;;5.88;;
32505;SDS011;18955;51.224;8.482;2023-08-24T07:08:55;12.18;;;6.20;;
32505;SDS011;18955;51.224;8.482;2023-08-24T07:11:21;13.25;;;6.30;;
32505;SDS011;18955;51.224;8.482;2023-08-24T07:13:49;15.35;;;6.40;;
32505;SDS011;18955;51.224;8.482;2023-08-24T07:18:41;14.07;;;6.90;;
32505;SDS011;18955;51.224;8.482;2023-08-24T07:21:08;13.98;;;4.65;;
32505;SDS011;18955;51.224;8.482;2023-08-24T07:23:34;14.38;;;6.82;;
32505;SDS011;18955;51.224;8.482;2023-08-24T07:26:00;10.73;;;5.55;;
32505;SDS011;18955;51.224;8.482;2023-08-24T07:28:26;12.45;;;7.45;;
32505;SDS011;18955;51.224;8.482;2023-08-24T07:30:52;17.73;;;5.63;;
32505;SDS011;18955;51.224;8.482;2023-08-24T07:33:21;14.82;;;7.10;;
32505;SDS011;18955;51.224;8.482;2023-08-24T07:35:48;19.42;;;7.85;;
32505;SDS011;18955;51.224;8.482;2023-08-24T07:38:14;8.93;;;5.68;;
32505;SDS011;18955;51.224;8.482;2023-08-24T07:40:40;13.30;;;7.45;;
32505;SDS011;18955;51.224;8.482;2023-08-24T07:43:06;13.77;;;8.30;;
32505;SDS011;18955;51.224;8.482;2023-08-24T07:47:59;20.45;;;7.13;;
32505;SDS011;18955;51.224;8.482;2023-08-24T07:50:25;20.13;;;7.65;;
32505;SDS011;18955;51.224;8.482;2023-08-24T07:52:52;14.88;;;7.00;;
32505;SDS011;18955;51.224;8.482;2023-08-24T07:55:18;11.60;;;6.38;;
32505;SDS011;18955;51.224;8.482;2023-08-24T07:57:44;16.33;;;6.97;;
32505;SDS011;18955;51.224;8.482;2023-08-24T08:00:10;18.10;;;7.35;;
32505;SDS011;18955;51.224;8.482;2023-08-24T08:02:40;14.27;;;7.32;;
32505;SDS011;18955;51.224;8.482;2023-08-24T08:05:06;14.82;;;7.13;;
32505;SDS011;18955;51.224;8.482;2023-08-24T08:09:59;10.45;;;6.13;;
32505;SDS011;18955;51.224;8.482;2023-08-24T08:12:25;14.23;;;7.00;;
32505;SDS011;18955;51.224;8.482;2023-08-24T08:14:52;16.70;;;5.15;;
32505;SDS011;18955;51.224;8.482;2023-08-24T08:17:18;15.23;;;6.63;;
32505;SDS011;18955;51.224;8.482;2023-08-24T08:19:44;11.70;;;6.68;;
32505;SDS011;18955;51.224;8.482;2023-08-24T08:22:11;9.77;;;4.82;;
32505;SDS011;18955;51.224;8.482;2023-08-24T08:24:38;11.30;;;6.20;;
32505;SDS011;18955;51.224;8.482;2023-08-24T08:27:04;14.63;;;5.55;;
32505;SDS011;18955;51.224;8.482;2023-08-24T08:29:30;11.45;;;5.75;;
32505;SDS011;18955;51.224;8.482;2023-08-24T08:31:56;10.02;;;6.45;;
32505;SDS011;18955;51.224;8.482;2023-08-24T08:34:22;12.23;;;6.05;;
32505;SDS011;18955;51.224;8.482;2023-08-24T08:36:49;15.50;;;5.93;;
32505;SDS011;18955;51.224;8.482;2023-08-24T08:39:15;12.60;;;6.22;;
32505;SDS011;18955;51.224;8.482;2023-08-24T08:41:43;12.02;;;6.10;;
32505;SDS011;18955;51.224;8.482;2023-08-24T08:44:11;26.10;;;6.38;;
32505;SDS011;18955;51.224;8.482;2023-08-24T08:46:43;13.48;;;5.85;;
32505;SDS011;18955;51.224;8.482;2023-08-24T08:49:09;16.05;;;6.53;;
32505;SDS011;18955;51.224;8.482;2023-08-24T08:51:37;12.13;;;4.90;;
32505;SDS011;18955;51.224;8.482;2023-08-24T08:54:05;11.75;;;5.30;;
32505;SDS011;18955;51.224;8.482;2023-08-24T08:56:31;10.85;;;4.95;;
32505;SDS011;18955;51.224;8.482;2023-08-24T08:58:59;15.15;;;5.22;;
32505;SDS011;18955;51.224;8.482;2023-08-24T09:01:29;11.05;;;4.60;;
32505;SDS011;18955;51.224;8.482;2023-08-24T09:06:22;13.68;;;4.38;;
32505;SDS011;18955;51.224;8.482;2023-08-24T09:08:49;10.52;;;4.20;;
32505;SDS011;18955;51.224;8.482;2023-08-24T09:11:16;8.50;;;3.90;;
32505;SDS011;18955;51.224;8.482;2023-08-24T09:13:47;8.88;;;4.25;;
32505;SDS011;18955;51.224;8.482;2023-08-24T09:16:13;9.77;;;5.00;;
32505;SDS011;18955;51.224;8.482;2023-08-24T09:18:43;14.57;;;5.07;;
32505;SDS011;18955;51.224;8.482;2023-08-24T09:21:12;9.20;;;3.70;;
32505;SDS011;18955;51.224;8.482;2023-08-24T09:23:45;12.60;;;4.25;;
32505;SDS011;18955;51.224;8.482;2023-08-24T09:26:28;12.15;;;4.07;;
32505;SDS011;18955;51.224;8.482;2023-08-24T09:28:55;18.52;;;4.40;;
32505;SDS011;18955;51.224;8.482;2023-08-24T09:31:23;8.20;;;3.60;;
32505;SDS011;18955;51.224;8.482;2023-08-24T09:34:00;6.10;;;3.92;;
32505;SDS011;18955;51.224;8.482;2023-08-24T09:36:27;9.75;;;4.68;;
32505;SDS011;18955;51.224;8.482;2023-08-24T09:38:58;11.98;;;3.55;;
32505;SDS011;18955;51.224;8.482;2023-08-24T09:41:36;9.00;;;3.75;;
32505;SDS011;18955;51.224;8.482;2023-08-24T09:44:07;13.23;;;4.18;;
32505;SDS011;18955;51.224;8.482;2023-08-24T09:46:37;8.23;;;3.10;;
32505;SDS011;18955;51.224;8.482;2023-08-24T09:49:04;7.75;;;3.22;;
32505;SDS011;18955;51.224;8.482;2023-08-24T09:51:32;11.68;;;3.35;;
32505;SDS011;18955;51.224;8.482;2023-08-24T09:53:59;19.55;;;3.40;;
32505;SDS011;18955;51.224;8.482;2023-08-24T09:56:37;10.27;;;2.92;;
32505;SDS011;18955;51.224;8.482;2023-08-24T09:59:14;11.55;;;3.38;;
32505;SDS011;18955;51.224;8.482;2023-08-24T10:01:48;8.43;;;3.08;;
32505;SDS011;18955;51.224;8.482;2023-08-24T10:04:17;10.00;;;2.90;;
32505;SDS011;18955;51.224;8.482;2023-08-24T10:06:47;11.07;;;3.13;;
32505;SDS011;18955;51.224;8.482;2023-08-24T10:09:19;8.30;;;2.97;;
32505;SDS011;18955;51.224;8.482;2023-08-24T10:11:52;7.25;;;2.88;;
32505;SDS011;18955;51.224;8.482;2023-08-24T10:14:32;12.63;;;3.25;;
32505;SDS011;18955;51.224;8.482;2023-08-24T10:17:13;6.30;;;3.13;;
32505;SDS011;18955;51.224;8.482;2023-08-24T10:19:40;14.80;;;3.67;;
32505;SDS011;18955;51.224;8.482;2023-08-24T10:22:08;11.52;;;3.30;;
32505;SDS011;18955;51.224;8.482;2023-08-24T10:24:35;7.53;;;3.10;;
32505;SDS011;18955;51.224;8.482;2023-08-24T10:29:29;4.55;;;3.03;;
32505;SDS011;18955;51.224;8.482;2023-08-24T10:31:55;6.68;;;3.28;;
32505;SDS011;18955;51.224;8.482;2023-08-24T10:36:48;18.73;;;3.67;;
32505;SDS011;18955;51.224;8.482;2023-08-24T10:39:15;14.75;;;3.15;;
32505;SDS011;18955;51.224;8.482;2023-08-24T10:49:42;8.68;;;3.45;;
32505;SDS011;18955;51.224;8.482;2023-08-24T10:55:05;5.22;;;3.28;;
32505;SDS011;18955;51.224;8.482;2023-08-24T10:58:01;13.27;;;4.20;;
32505;SDS011;18955;51.224;8.482;2023-08-24T11:00:28;8.00;;;3.47;;
32505;SDS011;18955;51.224;8.482;2023-08-24T11:02:56;15.02;;;3.20;;
32505;SDS011;18955;51.224;8.482;2023-08-24T11:05:23;5.97;;;2.80;;
32505;SDS011;18955;51.224;8.482;2023-08-24T11:08:06;11.63;;;3.00;;
32505;SDS011;18955;51.224;8.482;2023-08-24T11:13:12;9.38;;;2.90;;
32505;SDS011;18955;51.224;8.482;2023-08-24T11:20:50;14.13;;;2.83;;
32505;SDS011;18955;51.224;8.482;2023-08-24T11:23:19;10.52;;;2.88;;
32505;SDS011;18955;51.224;8.482;2023-08-24T11:25:46;9.20;;;3.35;;
32505;SDS011;18955;51.224;8.482;2023-08-24T11:28:17;5.03;;;2.45;;
32505;SDS011;18955;51.224;8.482;2023-08-24T11:30:45;10.10;;;3.13;;
32505;SDS011;18955;51.224;8.482;2023-08-24T11:33:12;8.30;;;2.65;;
32505;SDS011;18955;51.224;8.482;2023-08-24T11:35:43;12.52;;;4.03;;
32505;SDS011;18955;51.224;8.482;2023-08-24T11:38:10;5.75;;;2.78;;
32505;SDS011;18955;51.224;8.482;2023-08-24T11:40:38;12.05;;;3.03;;
32505;SDS011;18955;51.224;8.482;2023-08-24T11:43:04;7.70;;;3.40;;
32505;SDS011;18955;51.224;8.482;2023-08-24T11:45:33;6.82;;;3.13;;
32505;SDS011;18955;51.224;8.482;2023-08-24T11:48:02;6.13;;;2.90;;
32505;SDS011;18955;51.224;8.482;2023-08-24T11:50:30;5.20;;;2.88;;
32505;SDS011;18955;51.224;8.482;2023-08-24T11:52:57;8.75;;;2.90;;
32505;SDS011;18955;51.224;8.482;2023-08-24T11:55:25;10.68;;;3.38;;
32505;SDS011;18955;51.224;8.482;2023-08-24T11:57:51;6.80;;;3.60;;
32505;SDS011;18955;51.224;8.482;2023-08-24T12:00:19;8.00;;;3.00;;
32505;SDS011;18955;51.224;8.482;2023-08-24T12:02:47;8.73;;;2.97;;
32505;SDS011;18955;51.224;8.482;2023-08-24T12:05:23;7.82;;;3.40;;
32505;SDS011;18955;51.224;8.482;2023-08-24T12:07:51;7.63;;;2.83;;
32505;SDS011;18955;51.224;8.482;2023-08-24T12:10:18;10.50;;;3.22;;
32505;SDS011;18955;51.224;8.482;2023-08-24T12:12:45;10.05;;;3.00;;
32505;SDS011;18955;51.224;8.482;2023-08-24T12:15:15;4.90;;;2.40;;
32505;SDS011;18955;51.224;8.482;2023-08-24T12:17:49;5.60;;;2.55;;
32505;SDS011;18955;51.224;8.482;2023-08-24T12:20:18;6.85;;;2.72;;
32505;SDS011;18955;51.224;8.482;2023-08-24T12:22:55;4.55;;;2.53;;
32505;SDS011;18955;51.224;8.482;2023-08-24T12:25:22;8.02;;;2.65;;
32505;SDS011;18955;51.224;8.482;2023-08-24T12:27:50;13.20;;;2.80;;
32505;SDS011;18955;51.224;8.482;2023-08-24T12:30:47;11.40;;;3.63;;
32505;SDS011;18955;51.224;8.482;2023-08-24T12:33:22;15.15;;;2.88;;
32505;SDS011;18955;51.224;8.482;2023-08-24T12:35:52;6.68;;;2.70;;
32505;SDS011;18955;51.224;8.482;2023-08-24T12:38:19;8.80;;;2.58;;
32505;SDS011;18955;51.224;8.482;2023-08-24T12:43:12;16.15;;;2.90;;
32505;SDS011;18955;51.224;8.482;2023-08-24T12:45:39;10.32;;;2.88;;
32505;SDS011;18955;51.224;8.482;2023-08-24T12:48:06;19.35;;;3.30;;
32505;SDS011;18955;51.224;8.482;2023-08-24T12:52:59;6.50;;;3.40;;
32505;SDS011;18955;51.224;8.482;2023-08-24T12:55:26;5.03;;;2.90;;
32505;SDS011;18955;51.224;8.482;2023-08-24T12:57:53;9.73;;;2.58;;
32505;SDS011;18955;51.224;8.482;2023-08-24T13:00:19;4.88;;;2.60;;
32505;SDS011;18955;51.224;8.482;2023-08-24T13:02:46;8.88;;;2.67;;
32505;SDS011;18955;51.224;8.482;2023-08-24T13:05:12;6.60;;;2.85;;
32505;SDS011;18955;51.224;8.482;2023-08-24T13:07:38;8.27;;;2.95;;
32505;SDS011;18955;51.224;8.482;2023-08-24T13:10:05;11.20;;;2.58;;
32505;SDS011;18955;51.224;8.482;2023-08-24T13:12:32;11.48;;;3.38;;
32505;SDS011;18955;51.224;8.482;2023-08-24T13:15:00;9.90;;;2.53;;
32505;SDS011;18955;51.224;8.482;2023-08-24T13:17:29;11.43;;;2.80;;
32505;SDS011;18955;51.224;8.482;2023-08-24T13:19:56;20.27;;;2.92;;
32505;SDS011;18955;51.224;8.482;2023-08-24T13:22:22;11.07;;;3.53;;
32505;SDS011;18955;51.224;8.482;2023-08-24T13:24:49;9.18;;;2.67;;
32505;SDS011;18955;51.224;8.482;2023-08-24T13:27:15;11.45;;;2.90;;
32505;SDS011;18955;51.224;8.482;2023-08-24T13:29:41;10.80;;;3.53;;
32505;SDS011;18955;51.224;8.482;2023-08-24T13:32:08;4.22;;;2.45;;
32505;SDS011;18955;51.224;8.482;2023-08-24T13:34:35;7.60;;;3.35;;
32505;SDS011;18955;51.224;8.482;2023-08-24T13:37:02;8.18;;;2.97;;
32505;SDS011;18955;51.224;8.482;2023-08-24T13:39:29;6.20;;;2.88;;
32505;SDS011;18955;51.224;8.482;2023-08-24T13:41:56;4.97;;;2.90;;
32505;SDS011;18955;51.224;8.482;2023-08-24T13:44:22;4.95;;;2.72;;
32505;SDS011;18955;51.224;8.482;2023-08-24T13:46:49;7.72;;;2.90;;
32505;SDS011;18955;51.224;8.482;2023-08-24T13:49:19;5.32;;;2.67;;
32505;SDS011;18955;51.224;8.482;2023-08-24T13:51:46;7.50;;;2.80;;
32505;SDS011;18955;51.224;8.482;2023-08-24T13:54:13;19.73;;;3.42;;
32505;SDS011;18955;51.224;8.482;2023-08-24T13:56:44;4.22;;;2.22;;
32505;SDS011;18955;51.224;8.482;2023-08-24T13:59:12;12.70;;;2.92;;
32505;SDS011;18955;51.224;8.482;2023-08-24T14:01:40;8.27;;;2.75;;
32505;SDS011;18955;51.224;8.482;2023-08-24T14:04:07;10.63;;;2.90;;
32505;SDS011;18955;51.224;8.482;2023-08-24T14:09:02;10.00;;;3.20;;
32505;SDS011;18955;51.224;8.482;2023-08-24T14:11:30;8.52;;;2.58;;
32505;SDS011;18955;51.224;8.482;2023-08-24T14:13:57;12.25;;;2.72;;
32505;SDS011;18955;51.224;8.482;2023-08-24T14:16:24;6.95;;;2.80;;
32505;SDS011;18955;51.224;8.482;2023-08-24T14:18:51;7.57;;;2.60;;
32505;SDS011;18955;51.224;8.482;2023-08-24T14:21:17;13.25;;;3.10;;
32505;SDS011;18955;51.224;8.482;2023-08-24T14:23:46;7.35;;;2.95;;
32505;SDS011;18955;51.224;8.482;2023-08-24T14:26:12;9.07;;;2.90;;
32505;SDS011;18955;51.224;8.482;2023-08-24T14:28:48;6.28;;;2.42;;
32505;SDS011;18955;51.224;8.482;2023-08-24T14:31:19;8.32;;;3.00;;
32505;SDS011;18955;51.224;8.482;2023-08-24T14:33:46;8.68;;;3.03;;
32505;SDS011;18955;51.224;8.482;2023-08-24T14:36:12;6.75;;;2.65;;
32505;SDS011;18955;51.224;8.482;2023-08-24T14:38:39;7.75;;;2.92;;
32505;SDS011;18955;51.224;8.482;2023-08-24T14:41:06;11.35;;;2.97;;
32505;SDS011;18955;51.224;8.482;2023-08-24T14:43:35;11.55;;;2.80;;
32505;SDS011;18955;51.224;8.482;2023-08-24T14:46:02;7.72;;;2.95;;
32505;SDS011;18955;51.224;8.482;2023-08-24T14:48:29;6.70;;;2.60;;
32505;SDS011;18955;51.224;8.482;2023-08-24T14:50:55;7.57;;;2.80;;
32505;SDS011;18955;51.224;8.482;2023-08-24T14:53:25;9.50;;;2.88;;
32505;SDS011;18955;51.224;8.482;2023-08-24T14:55:52;11.00;;;3.22;;
32505;SDS011;18955;51.224;8.482;2023-08-24T14:58:23;12.65;;;3.33;;
32505;SDS011;18955;51.224;8.482;2023-08-24T15:00:50;13.75;;;3.00;;
32505;SDS011;18955;51.224;8.482;2023-08-24T15:03:18;5.63;;;3.00;;
32505;SDS011;18955;51.224;8.482;2023-08-24T15:05:45;12.27;;;3.30;;
32505;SDS011;18955;51.224;8.482;2023-08-24T15:10:48;9.45;;;2.83;;
32505;SDS011;18955;51.224;8.482;2023-08-24T15:13:15;4.50;;;2.65;;
32505;SDS011;18955;51.224;8.482;2023-08-24T15:15:41;8.25;;;2.60;;
32505;SDS011;18955;51.224;8.482;2023-08-24T15:18:07;8.73;;;2.90;;
32505;SDS011;18955;51.224;8.482;2023-08-24T15:20:35;7.72;;;2.65;;
32505;SDS011;18955;51.224;8.482;2023-08-24T15:23:01;13.02;;;3.42;;
32505;SDS011;18955;51.224;8.482;2023-08-24T15:25:27;9.07;;;2.60;;
32505;SDS011;18955;51.224;8.482;2023-08-24T15:27:54;4.43;;;2.42;;
32505;SDS011;18955;51.224;8.482;2023-08-24T15:30:20;6.35;;;2.80;;
32505;SDS011;18955;51.224;8.482;2023-08-24T15:32:46;5.40;;;2.92;;
32505;SDS011;18955;51.224;8.482;2023-08-24T15:35:12;12.00;;;3.03;;
32505;SDS011;18955;51.224;8.482;2023-08-24T15:37:38;7.28;;;2.70;;
32505;SDS011;18955;51.224;8.482;2023-08-24T15:40:05;7.85;;;2.58;;
32505;SDS011;18955;51.224;8.482;2023-08-24T15:44:58;8.80;;;2.78;;
32505;SDS011;18955;51.224;8.482;2023-08-24T15:47:26;12.27;;;3.15;;
32505;SDS011;18955;51.224;8.482;2023-08-24T15:49:52;11.90;;;2.90;;